createdAt,value
2023-05-10T00:02:16.708Z,100790.63
2023-05-10T00:04:44.496Z,100801.44
2023-05-10T00:07:12.535Z,100800.88
2023-05-10T00:09:41.037Z,100797.09
2023-05-10T00:12:08.975Z,100797.94
2023-05-10T00:14:37.041Z,100797.38
2023-05-10T00:17:06.225Z,100791.94
2023-05-10T00:19:34.353Z,100792.19
2023-05-10T00:22:02.742Z,100795.72
2023-05-10T00:24:30.519Z,100789.75
2023-05-10T00:26:58.420Z,100798.69
2023-05-10T00:29:26.348Z,100799.50
2023-05-10T00:31:54.253Z,100799.75
2023-05-10T00:34:23.434Z,100798.94
2023-05-10T00:36:51.349Z,100791.88
2023-05-10T00:39:19.102Z,100797.31
2023-05-10T00:41:46.905Z,100792.72
2023-05-10T00:44:14.704Z,100795.41
2023-05-10T00:46:43.056Z,100789.19
2023-05-10T00:49:10.997Z,100789.19
2023-05-10T00:51:40.223Z,100792.72
2023-05-10T00:54:08.050Z,100784.84
2023-05-10T00:56:36.460Z,100790.25
2023-05-10T00:59:04.618Z,100786.47
2023-05-10T01:01:33.040Z,100789.44
2023-05-10T01:04:01.739Z,100789.44
2023-05-10T01:06:29.545Z,100790.25
2023-05-10T01:08:58.846Z,100783.47
2023-05-10T01:11:26.752Z,100789.69
2023-05-10T01:13:58.539Z,100787.81
2023-05-10T01:16:28.502Z,100790.50
2023-05-10T01:18:56.434Z,100786.97
2023-05-10T01:21:35.176Z,100787.81
2023-05-10T01:24:17.264Z,100781.81
2023-05-10T01:27:13.809Z,100778.28
2023-05-10T01:30:16.182Z,100786.41
2023-05-10T01:32:55.418Z,100786.41
2023-05-10T01:35:29.138Z,100784.78
2023-05-10T01:38:04.938Z,100781.25
2023-05-10T01:40:38.417Z,100775.03
2023-05-10T01:43:10.492Z,100786.94
2023-05-10T01:45:45.826Z,100776.34
2023-05-10T01:48:16.923Z,100784.47
2023-05-10T01:50:48.605Z,100778.25
2023-05-10T01:53:20.687Z,100778.50
2023-05-10T01:55:51.336Z,100788.25
2023-05-10T01:58:23.089Z,100773.53
2023-05-10T02:00:53.019Z,100783.91
2023-05-10T02:03:25.532Z,100782.28
2023-05-10T02:05:56.395Z,100790.66
2023-05-10T02:08:25.947Z,100790.41
2023-05-10T02:10:56.741Z,100795.25
2023-05-10T02:13:26.676Z,100795.25
2023-05-10T02:15:56.693Z,100793.59
2023-05-10T02:18:27.914Z,100788.63
2023-05-10T02:20:57.401Z,100810.09
2023-05-10T02:23:26.181Z,100812.00
2023-05-10T02:25:56.059Z,100814.69
2023-05-10T02:28:25.783Z,100813.31
2023-05-10T02:30:54.999Z,100809.78
2023-05-10T02:33:24.174Z,100817.66
2023-05-10T02:35:54.675Z,100814.13
2023-05-10T02:38:24.649Z,100809.78
2023-05-10T02:40:53.202Z,100812.19
2023-05-10T02:43:23.616Z,100816.84
2023-05-10T02:45:51.643Z,100811.41
2023-05-10T02:48:19.779Z,100816.03
2023-05-10T02:50:52.579Z,100820.63
2023-05-10T02:53:26.127Z,100820.88
2023-05-10T02:55:57.802Z,100817.34
2023-05-10T02:58:26.351Z,100825.47
2023-05-10T03:00:54.540Z,100820.22
2023-05-10T03:03:22.331Z,100826.53
2023-05-10T03:05:50.171Z,100821.13
2023-05-10T03:08:18.450Z,100815.69
2023-05-10T03:11:01.291Z,100814.31
2023-05-10T03:13:36.333Z,100820.56
2023-05-10T03:16:10.766Z,100810.78
2023-05-10T03:18:44.936Z,100820.56
2023-05-10T03:21:16.161Z,100823.50
2023-05-10T03:23:49.830Z,100828.09
2023-05-10T03:26:24.933Z,100820.22
2023-05-10T03:28:54.110Z,100828.59
2023-05-10T03:31:22.387Z,100832.94
2023-05-10T03:33:50.932Z,100833.19
2023-05-10T03:36:18.727Z,100834.25
2023-05-10T03:38:47.036Z,100830.75
2023-05-10T03:41:14.964Z,100839.69
2023-05-10T03:43:44.166Z,100841.56
2023-05-10T03:46:12.045Z,100842.63
2023-05-10T03:48:39.974Z,100833.69
2023-05-10T03:51:07.720Z,100841.00
2023-05-10T03:53:35.630Z,100839.38
2023-05-10T03:56:03.620Z,100836.91
2023-05-10T03:58:31.362Z,100845.03
2023-05-10T04:01:01.917Z,100850.69
2023-05-10T04:03:29.743Z,100840.69
2023-05-10T04:06:02.090Z,100854.22
2023-05-10T04:08:30.789Z,100849.88
2023-05-10T04:11:07.594Z,100852.56
2023-05-10T04:13:36.201Z,100853.63
2023-05-10T04:16:05.824Z,100852.00
2023-05-10T04:18:33.811Z,100855.22
2023-05-10T04:21:01.673Z,100852.50
2023-05-10T04:23:29.540Z,100847.91
2023-05-10T04:26:01.874Z,100848.16
2023-05-10T04:28:29.776Z,100851.44
2023-05-10T04:31:03.501Z,100853.56
2023-05-10T04:33:33.059Z,100856.03
2023-05-10T04:36:00.944Z,100858.97
2023-05-10T04:38:28.926Z,100847.59
2023-05-10T04:40:56.999Z,100846.69
2023-05-10T04:43:24.803Z,100845.69
2023-05-10T04:45:52.576Z,100853.00
2023-05-10T04:48:20.432Z,100860.31
2023-05-10T04:50:49.753Z,100860.31
2023-05-10T04:53:17.763Z,100860.31
2023-05-10T04:55:45.821Z,100866.53
2023-05-10T04:58:13.757Z,100869.22
2023-05-10T05:00:41.963Z,100873.81
2023-05-10T05:03:09.882Z,100876.78
2023-05-10T05:05:37.794Z,100872.44
2023-05-10T05:08:07.833Z,100871.63
2023-05-10T05:10:35.903Z,100865.38
2023-05-10T05:13:03.768Z,100865.38
2023-05-10T05:15:32.055Z,100878.91
2023-05-10T05:17:59.848Z,100870.81
2023-05-10T05:20:27.686Z,100879.97
2023-05-10T05:22:55.571Z,100883.75
2023-05-10T05:25:24.970Z,100882.94
2023-05-10T05:27:52.824Z,100884.81
2023-05-10T05:30:20.943Z,100885.91
2023-05-10T05:32:49.142Z,100889.16
2023-05-10T05:35:17.444Z,100886.72
2023-05-10T05:37:45.752Z,100891.06
2023-05-10T05:40:15.021Z,100892.94
2023-05-10T05:42:44.809Z,100898.34
2023-05-10T05:45:14.353Z,100901.31
2023-05-10T05:47:42.421Z,100891.31
2023-05-10T05:50:11.386Z,100905.25
2023-05-10T05:52:39.243Z,100908.78
2023-05-10T05:55:07.466Z,100900.91
2023-05-10T05:57:35.266Z,100907.38
2023-05-10T06:00:05.122Z,100914.19
2023-05-10T06:02:33.096Z,100914.44
2023-05-10T06:05:00.966Z,100915.00
2023-05-10T06:07:28.874Z,100913.94
2023-05-10T06:09:56.648Z,100921.22
2023-05-10T06:12:24.980Z,100919.59
2023-05-10T06:14:52.722Z,100924.75
2023-05-10T06:17:22.692Z,100925.56
2023-05-10T06:19:50.954Z,100928.03
2023-05-10T06:22:18.766Z,100935.31
2023-05-10T06:24:46.930Z,100932.63
2023-05-10T06:27:14.781Z,100940.72
2023-05-10T06:29:42.603Z,100948.59
2023-05-10T06:32:10.432Z,100946.97
2023-05-10T06:34:39.589Z,100948.84
2023-05-10T06:37:08.038Z,100939.91
2023-05-10T06:39:36.005Z,100942.63
2023-05-10T06:42:03.815Z,100940.72
2023-05-10T06:44:31.630Z,100948.84
2023-05-10T06:46:59.420Z,100955.09
2023-05-10T06:49:27.249Z,100950.50
2023-05-10T06:51:57.484Z,100955.91
2023-05-10T06:54:25.280Z,100953.19
2023-05-10T06:56:53.081Z,100955.09
2023-05-10T06:59:22.545Z,100961.31
2023-05-10T07:01:50.475Z,100964.84
2023-05-10T07:04:18.615Z,100962.94
2023-05-10T07:06:47.306Z,100954.84
2023-05-10T07:09:16.754Z,100964.00
2023-05-10T07:11:44.481Z,100965.09
2023-05-10T07:14:12.718Z,100961.81
2023-05-10T07:16:40.652Z,100971.31
2023-05-10T07:19:08.765Z,100977.78
2023-05-10T07:21:36.957Z,100980.25
2023-05-10T07:24:05.315Z,100981.38
2023-05-10T07:26:34.574Z,100985.31
2023-05-10T07:29:02.338Z,100992.38
2023-05-10T07:31:30.207Z,100984.34
2023-05-10T07:33:57.973Z,100991.97
2023-05-10T07:36:26.222Z,100988.75
2023-05-10T07:38:53.940Z,100989.34
2023-05-10T07:41:22.154Z,100990.97
2023-05-10T07:43:51.398Z,100990.41
2023-05-10T07:46:20.463Z,100994.75
2023-05-10T07:48:48.608Z,100994.19
2023-05-10T07:51:16.490Z,101003.69
2023-05-10T07:53:44.353Z,101006.38
2023-05-10T07:56:28.217Z,101010.75
2023-05-10T07:58:58.213Z,101011.81
2023-05-10T08:01:26.365Z,101015.31
2023-05-10T08:03:54.641Z,101016.16
2023-05-10T08:06:22.799Z,101018.38
2023-05-10T08:08:51.755Z,101025.09
2023-05-10T08:11:19.823Z,101027.81
2023-05-10T08:13:47.618Z,101017.72
2023-05-10T08:16:16.975Z,101028.94
2023-05-10T08:18:47.997Z,101034.38
2023-05-10T08:21:16.544Z,101042.66
2023-05-10T08:23:45.295Z,101039.13
2023-05-10T08:26:13.620Z,101056.88
2023-05-10T08:28:41.361Z,101050.16
2023-05-10T08:31:09.243Z,101049.53
2023-05-10T08:33:38.499Z,101052.41
2023-05-10T08:36:06.610Z,101053.38
2023-05-10T08:38:34.411Z,101040.44
2023-05-10T08:41:04.401Z,101047.00
2023-05-10T08:43:33.376Z,101050.44
2023-05-10T08:46:03.915Z,101052.56
2023-05-10T08:48:32.288Z,101042.66
2023-05-10T08:51:03.038Z,101041.59
2023-05-10T08:53:33.033Z,101051.69
2023-05-10T08:56:01.269Z,101060.88
2023-05-10T08:58:29.066Z,101047.97
2023-05-10T09:00:57.206Z,101060.28
2023-05-10T09:03:25.018Z,101065.69
2023-05-10T09:05:52.837Z,101059.47
2023-05-10T09:08:22.729Z,101058.66
2023-05-10T09:10:50.811Z,101065.13
2023-05-10T09:13:20.712Z,101055.53
2023-05-10T09:15:49.395Z,101062.16
2023-05-10T09:18:17.342Z,101070.53
2023-05-10T09:20:45.321Z,101067.81
2023-05-10T09:23:13.137Z,101060.94
2023-05-10T09:25:43.671Z,101068.66
2023-05-10T09:28:12.005Z,101069.72
2023-05-10T09:30:40.288Z,101076.78
2023-05-10T09:33:08.852Z,101072.19
2023-05-10T09:35:37.163Z,101075.94
2023-05-10T09:38:06.432Z,101080.28
2023-05-10T09:40:34.430Z,101077.34
2023-05-10T09:43:04.921Z,101071.94
2023-05-10T09:45:36.177Z,101077.09
2023-05-10T09:48:06.037Z,101082.50
2023-05-10T09:50:35.108Z,101079.56
2023-05-10T09:53:04.574Z,101086.38
2023-05-10T09:55:41.820Z,101078.97
2023-05-10T09:58:11.956Z,101083.41
2023-05-10T10:00:41.130Z,101084.00
2023-05-10T10:03:15.081Z,101085.88
2023-05-10T10:05:43.555Z,101089.41
2023-05-10T10:08:11.754Z,101090.22
2023-05-10T10:10:41.506Z,101082.09
2023-05-10T10:13:10.836Z,101084.00
2023-05-10T10:15:40.120Z,101086.44
2023-05-10T10:18:08.641Z,101082.69
2023-05-10T10:20:39.368Z,101086.22
2023-05-10T10:23:07.207Z,101077.25
2023-05-10T10:25:35.348Z,101078.09
2023-05-10T10:28:19.206Z,101082.44
2023-05-10T10:30:51.021Z,101082.44
2023-05-10T10:33:54.008Z,101081.38
2023-05-10T10:36:23.818Z,101081.13
2023-05-10T10:39:00.717Z,101081.94
2023-05-10T10:41:34.344Z,101085.47
2023-05-10T10:44:28.924Z,101087.09
2023-05-10T10:47:06.516Z,101081.69
2023-05-10T10:49:35.697Z,101077.69
2023-05-10T10:52:27.961Z,101088.50
2023-05-10T10:55:01.358Z,101090.72
2023-05-10T10:57:31.310Z,101091.22
2023-05-10T11:00:22.889Z,101080.72
2023-05-10T11:02:53.285Z,101095.06
2023-05-10T11:05:35.519Z,101094.00
2023-05-10T11:08:10.911Z,101091.06
2023-05-10T11:10:39.000Z,101094.56
2023-05-10T11:13:08.641Z,101084.81
2023-05-10T11:15:39.915Z,101093.75
2023-05-10T11:18:21.461Z,101094.56
2023-05-10T11:20:53.025Z,101087.03
2023-05-10T11:23:22.149Z,101095.16
2023-05-10T11:25:51.904Z,101095.97
2023-05-10T11:28:21.057Z,101083.66
2023-05-10T11:30:50.573Z,101090.56
2023-05-10T11:33:20.532Z,101094.09
2023-05-10T11:35:48.726Z,101094.41
2023-05-10T11:38:16.649Z,101095.47
2023-05-10T11:40:45.272Z,101099.81
2023-05-10T11:43:13.479Z,101091.47
2023-05-10T11:45:44.569Z,101099.59
2023-05-10T11:48:13.823Z,101100.41
2023-05-10T11:50:41.734Z,101102.03
2023-05-10T11:53:09.528Z,101103.09
2023-05-10T11:55:37.462Z,101103.94
2023-05-10T11:58:05.201Z,101104.75
2023-05-10T12:00:33.788Z,101117.47
2023-05-10T12:03:03.434Z,101110.75
2023-05-10T12:05:35.406Z,101108.28
2023-05-10T12:08:16.535Z,101104.75
2023-05-10T12:10:44.520Z,101116.41
2023-05-10T12:13:16.301Z,101109.09
2023-05-10T12:15:45.499Z,101113.44
2023-05-10T12:18:13.647Z,101104.66
2023-05-10T12:20:43.488Z,101121.56
2023-05-10T12:23:12.090Z,101124.84
2023-05-10T12:25:40.770Z,101124.84
2023-05-10T12:28:10.631Z,101122.97
2023-05-10T12:30:39.340Z,101125.44
2023-05-10T12:33:10.966Z,101126.50
2023-05-10T12:35:50.414Z,101132.72
2023-05-10T12:38:30.671Z,101135.44
2023-05-10T12:40:59.759Z,101135.44
2023-05-10T12:43:27.961Z,101123.97
2023-05-10T12:45:56.049Z,101138.16
2023-05-10T12:48:24.094Z,101133.97
2023-05-10T12:50:53.368Z,101139.72
2023-05-10T12:53:21.207Z,101147.00
2023-05-10T12:55:49.105Z,101143.47
2023-05-10T12:58:27.848Z,101145.38
2023-05-10T13:01:03.551Z,101134.69
2023-05-10T13:03:31.633Z,101148.06
2023-05-10T13:06:00.935Z,101141.03
2023-05-10T13:08:30.713Z,101146.44
2023-05-10T13:10:58.502Z,101142.91
2023-05-10T13:13:26.330Z,101142.09
2023-05-10T13:15:54.194Z,101147.50
2023-05-10T13:18:22.125Z,101146.94
2023-05-10T13:20:50.638Z,101157.50
2023-05-10T13:23:19.838Z,101155.06
2023-05-10T13:25:47.672Z,101158.59
2023-05-10T13:28:15.381Z,101162.13
2023-05-10T13:30:43.188Z,101167.53
2023-05-10T13:33:11.150Z,101172.94
2023-05-10T13:35:39.124Z,101161.53
2023-05-10T13:38:09.102Z,101170.16
2023-05-10T13:40:38.361Z,101178.53
2023-05-10T13:43:06.138Z,101181.22
2023-05-10T13:45:34.173Z,101179.59
2023-05-10T13:48:02.044Z,101178.53
2023-05-10T13:50:29.899Z,101180.66
2023-05-10T13:52:57.680Z,101169.81
2023-05-10T13:55:25.477Z,101178.19
2023-05-10T13:57:54.668Z,101184.09
2023-05-10T14:00:22.474Z,101182.13
2023-05-10T14:02:50.637Z,101185.63
2023-05-10T14:05:19.922Z,101184.00
2023-05-10T14:07:50.021Z,101185.06
2023-05-10T14:10:17.971Z,101179.66
2023-05-10T14:12:45.792Z,101188.34
2023-05-10T14:15:15.190Z,101179.41
2023-05-10T14:17:43.146Z,101176.69
2023-05-10T14:20:12.098Z,101176.69
2023-05-10T14:22:39.852Z,101182.44
2023-05-10T14:25:08.115Z,101164.47
2023-05-10T14:27:35.876Z,101177.38
2023-05-10T14:30:03.677Z,101173.00
2023-05-10T14:32:33.158Z,101176.53
2023-05-10T14:35:01.551Z,101172.19
2023-05-10T14:37:29.380Z,101172.19
2023-05-10T14:39:57.247Z,101171.13
2023-05-10T14:42:25.048Z,101172.53
2023-05-10T14:44:53.006Z,101173.59
2023-05-10T14:47:20.770Z,101169.81
2023-05-10T14:49:49.983Z,101176.63
2023-05-10T14:52:18.336Z,101182.03
2023-05-10T14:54:46.139Z,101185.56
2023-05-10T14:57:13.864Z,101182.28
2023-05-10T14:59:42.057Z,101177.94
2023-05-10T15:02:11.416Z,101178.19
2023-05-10T15:04:40.053Z,101169.25
2023-05-10T15:07:09.630Z,101170.88
2023-05-10T15:09:37.777Z,101175.47
2023-05-10T15:12:05.673Z,101185.50
2023-05-10T15:14:34.064Z,101184.66
2023-05-10T15:17:01.937Z,101189.25
2023-05-10T15:19:30.264Z,101185.97
2023-05-10T15:21:58.070Z,101187.03
2023-05-10T15:24:27.517Z,101190.00
2023-05-10T15:26:55.409Z,101191.06
2023-05-10T15:29:23.230Z,101188.34
2023-05-10T15:31:52.563Z,101199.41
2023-05-10T15:34:21.158Z,101202.38
2023-05-10T15:36:49.111Z,101198.84
2023-05-10T15:39:16.903Z,101205.06
2023-05-10T15:41:46.131Z,101201.56
2023-05-10T15:44:13.885Z,101204.50
2023-05-10T15:46:41.861Z,101202.84
2023-05-10T15:49:09.737Z,101218.84
2023-05-10T15:51:37.570Z,101219.91
2023-05-10T15:54:08.214Z,101221.56
2023-05-10T15:56:36.868Z,101231.31
2023-05-10T15:59:08.669Z,101227.81
2023-05-10T16:01:36.489Z,101230.50
2023-05-10T16:04:04.745Z,101216.97
2023-05-10T16:06:32.895Z,101221.56
2023-05-10T16:09:00.832Z,101234.28
2023-05-10T16:11:28.843Z,101234.28
2023-05-10T16:13:57.166Z,101235.91
2023-05-10T16:16:26.401Z,101235.34
2023-05-10T16:18:54.447Z,101239.13
2023-05-10T16:21:22.333Z,101238.03
2023-05-10T16:23:50.325Z,101239.94
2023-05-10T16:26:18.318Z,101237.47
2023-05-10T16:28:46.101Z,101240.19
2023-05-10T16:31:14.061Z,101236.66
2023-05-10T16:33:44.004Z,101232.28
2023-05-10T16:36:12.026Z,101235.00
2023-05-10T16:38:39.889Z,101232.28
2023-05-10T16:41:08.018Z,101233.13
2023-05-10T16:43:36.785Z,101226.88
2023-05-10T16:46:10.582Z,101228.75
2023-05-10T16:48:38.463Z,101243.13
2023-05-10T16:51:07.821Z,101251.25
2023-05-10T16:53:36.252Z,101254.78
2023-05-10T16:56:04.113Z,101257.72
2023-05-10T16:58:31.904Z,101256.66
2023-05-10T17:01:00.189Z,101253.13
2023-05-10T17:03:28.302Z,101262.06
2023-05-10T17:05:56.181Z,101261.50
2023-05-10T17:08:25.365Z,101260.44
2023-05-10T17:10:53.118Z,101262.56
2023-05-10T17:13:20.943Z,101268.78
2023-05-10T17:15:48.825Z,101280.44
2023-05-10T17:18:17.740Z,101268.78
2023-05-10T17:20:46.137Z,101274.19
2023-05-10T17:23:14.023Z,101276.09
2023-05-10T17:25:43.230Z,101281.50
2023-05-10T17:28:11.025Z,101283.38
2023-05-10T17:30:38.778Z,101282.56
2023-05-10T17:33:06.797Z,101280.91
2023-05-10T17:35:35.137Z,101286.34
2023-05-10T17:38:02.953Z,101268.81
2023-05-10T17:40:30.985Z,101276.56
2023-05-10T17:43:00.192Z,101280.34
2023-05-10T17:45:28.070Z,101279.50
2023-05-10T17:47:57.194Z,101277.63
2023-05-10T17:50:25.019Z,101280.34
2023-05-10T17:52:53.010Z,101282.22
2023-05-10T17:55:20.855Z,101278.69
2023-05-10T17:57:50.582Z,101283.28
2023-05-10T18:00:21.450Z,101279.50
2023-05-10T18:02:49.428Z,101283.28
2023-05-10T18:05:17.912Z,101288.69
2023-05-10T18:07:46.174Z,101286.00
2023-05-10T18:10:13.992Z,101286.00
2023-05-10T18:12:41.812Z,101288.69
2023-05-10T18:15:10.397Z,101293.06
2023-05-10T18:17:39.705Z,101297.63
2023-05-10T18:20:08.871Z,101301.16
2023-05-10T18:22:37.117Z,101297.63
2023-05-10T18:25:05.842Z,101303.88
2023-05-10T18:27:34.388Z,101299.53
2023-05-10T18:30:02.364Z,101303.06
2023-05-10T18:32:30.437Z,101300.59
2023-05-10T18:34:59.867Z,101294.09
2023-05-10T18:37:27.993Z,101301.66
2023-05-10T18:39:55.848Z,101301.66
2023-05-10T18:42:23.663Z,101307.88
2023-05-10T18:44:51.576Z,101302.47
2023-05-10T18:47:19.352Z,101307.88
2023-05-10T18:49:47.176Z,101311.66
2023-05-10T18:52:17.002Z,101308.13
2023-05-10T18:54:44.797Z,101309.19
2023-05-10T18:57:13.810Z,101311.88
2023-05-10T18:59:42.590Z,101307.31
2023-05-10T19:02:10.472Z,101309.19
2023-05-10T19:04:38.397Z,101309.19
2023-05-10T19:07:06.234Z,101316.72
2023-05-10T19:09:35.713Z,101310.47
2023-05-10T19:12:03.541Z,101314.25
2023-05-10T19:14:31.334Z,101311.53
2023-05-10T19:17:01.324Z,101309.66
2023-05-10T19:19:29.248Z,101315.31
2023-05-10T19:21:57.151Z,101306.38
2023-05-10T19:24:25.885Z,101291.81
2023-05-10T19:26:56.425Z,101313.91
2023-05-10T19:29:25.648Z,101317.44
2023-05-10T19:31:54.198Z,101317.44
2023-05-10T19:34:22.272Z,101325.78
2023-05-10T19:36:50.090Z,101318.50
2023-05-10T19:39:17.936Z,101323.09
2023-05-10T19:41:45.667Z,101314.97
2023-05-10T19:44:15.033Z,101323.31
2023-05-10T19:46:42.921Z,101326.84
2023-05-10T19:49:10.841Z,101328.72
2023-05-10T19:51:38.665Z,101333.31
2023-05-10T19:54:06.517Z,101338.75
2023-05-10T19:56:34.327Z,101336.84
2023-05-10T19:59:03.680Z,101331.69
2023-05-10T20:01:32.915Z,101337.91
2023-05-10T20:04:01.016Z,101343.31
2023-05-10T20:06:28.943Z,101338.97
2023-05-10T20:08:56.685Z,101338.97
2023-05-10T20:11:24.481Z,101336.50
2023-05-10T20:13:52.979Z,101338.16
2023-05-10T20:16:20.809Z,101340.03
2023-05-10T20:18:50.697Z,101347.31
2023-05-10T20:21:19.810Z,101343.81
2023-05-10T20:23:47.613Z,101339.44
2023-05-10T20:26:15.426Z,101340.28
2023-05-10T20:28:43.457Z,101342.97
2023-05-10T20:31:11.754Z,101341.34
2023-05-10T20:33:39.534Z,101348.63
2023-05-10T20:36:10.123Z,101346.97
2023-05-10T20:38:38.009Z,101339.09
2023-05-10T20:41:05.785Z,101344.50
2023-05-10T20:43:34.069Z,101349.09
2023-05-10T20:46:05.458Z,101353.69
2023-05-10T20:48:34.026Z,101361.81
2023-05-10T20:51:02.370Z,101357.44
2023-05-10T20:53:31.567Z,101363.69
2023-05-10T20:55:59.367Z,101359.34
2023-05-10T20:58:27.685Z,101360.41
2023-05-10T21:00:55.562Z,101359.56
2023-05-10T21:03:23.349Z,101359.56
2023-05-10T21:05:51.164Z,101352.28
2023-05-10T21:08:19.177Z,101360.63
2023-05-10T21:10:48.748Z,101352.53
2023-05-10T21:13:16.690Z,101359.00
2023-05-10T21:15:44.518Z,101357.09
2023-05-10T21:18:12.387Z,101357.34
2023-05-10T21:20:40.269Z,101356.50
2023-05-10T21:23:08.088Z,101368.16
2023-05-10T21:25:36.514Z,101364.03
2023-05-10T21:28:05.983Z,101371.09
2023-05-10T21:30:33.720Z,101362.16
2023-05-10T21:33:02.648Z,101361.34
2023-05-10T21:35:31.661Z,101369.47
2023-05-10T21:37:59.479Z,101367.81
2023-05-10T21:40:27.241Z,101361.56
2023-05-10T21:42:55.306Z,101371.34
2023-05-10T21:45:24.667Z,101371.34
2023-05-10T21:47:52.470Z,101371.34
2023-05-10T21:50:20.620Z,101363.22
2023-05-10T21:52:48.514Z,101371.81
2023-05-10T21:55:17.125Z,101367.81
2023-05-10T21:57:45.375Z,101362.63
2023-05-10T22:00:16.205Z,101365.34
2023-05-10T22:02:46.497Z,101366.41
2023-05-10T22:05:14.566Z,101369.94
2023-05-10T22:07:42.515Z,101367.47
2023-05-10T22:10:10.827Z,101370.97
2023-05-10T22:12:38.636Z,101363.94
2023-05-10T22:15:10.195Z,101367.47
2023-05-10T22:17:39.623Z,101372.88
2023-05-10T22:20:10.520Z,101349.69
2023-05-10T22:22:38.276Z,101368.50
2023-05-10T22:25:07.413Z,101371.47
2023-05-10T22:27:35.349Z,101363.56
2023-05-10T22:30:03.225Z,101364.16
2023-05-10T22:32:32.178Z,101364.41
2023-05-10T22:35:02.713Z,101364.41
2023-05-10T22:37:31.822Z,101366.28
2023-05-10T22:39:59.775Z,101361.94
2023-05-10T22:42:27.578Z,101363.00
2023-05-10T22:44:55.417Z,101376.50
2023-05-10T22:47:23.186Z,101372.16
2023-05-10T22:49:51.303Z,101378.63
2023-05-10T22:52:19.131Z,101368.88
2023-05-10T22:54:48.253Z,101371.56
2023-05-10T22:57:16.183Z,101368.03
2023-05-10T22:59:44.210Z,101374.28
2023-05-10T23:02:14.168Z,101375.34
2023-05-10T23:04:42.180Z,101378.28
2023-05-10T23:07:10.349Z,101372.88
2023-05-10T23:09:38.148Z,101376.38
2023-05-10T23:12:07.678Z,101380.97
2023-05-10T23:14:35.567Z,101382.03
2023-05-10T23:17:03.370Z,101384.75
2023-05-10T23:19:31.404Z,101384.75
2023-05-10T23:21:59.836Z,101383.09
2023-05-10T23:24:27.641Z,101383.09
2023-05-10T23:26:55.503Z,101384.97
2023-05-10T23:29:26.302Z,101387.69
2023-05-10T23:31:54.208Z,101383.34
2023-05-10T23:34:22.051Z,101385.22
2023-05-10T23:36:49.848Z,101380.84
2023-05-10T23:39:17.660Z,101387.09
2023-05-10T23:41:45.966Z,101387.91
2023-05-10T23:44:13.916Z,101380.84
2023-05-10T23:46:43.134Z,101381.69
2023-05-10T23:49:11.060Z,101376.47
2023-05-10T23:51:38.801Z,101385.22
2023-05-10T23:54:06.692Z,101376.47
2023-05-10T23:56:34.437Z,101372.94
2023-05-10T23:59:02.309Z,101370.25
